Time;durP1;ratioP1;P1;durP2;ratioP2;P2;SDS_P1;SDS_P2;PMS_P1;PMS_P2;Temp;Humidity;BMP_temperature;BMP_pressure;BME280_temperature;BME280_humidity;BME280_pressure;Samples;Min_cycle;Max_cycle;Signal;HPM_P1;HPM_P2
2023/12/03 00:00:42;;;;;;;25.73;24.33;;;;;;;;;;5023942;28;20094;-72
2023/12/03 00:03:08;;;;;;;24.90;23.40;;;;;;;;;;5008828;28;20479;-73
2023/12/03 00:05:36;;;;;;;23.17;21.92;;;;;;;;;;5021852;28;20037;-72
2023/12/03 00:08:01;;;;;;;24.55;22.95;;;;;;;;;;5020867;28;20065;-72
2023/12/03 00:10:27;;;;;;;22.73;21.52;;;;;;;;;;5026289;28;20451;-72
2023/12/03 00:12:52;;;;;;;24.13;22.75;;;;;;;;;;5022971;28;20116;-71
2023/12/03 00:15:18;;;;;;;24.00;22.67;;;;;;;;;;5026098;28;20371;-64
2023/12/03 00:17:43;;;;;;;24.02;22.63;;;;;;;;;;5022068;28;20036;-64
2023/12/03 00:20:09;;;;;;;23.48;22.08;;;;;;;;;;5025313;28;20037;-64
2023/12/03 00:22:34;;;;;;;22.45;21.15;;;;;;;;;;5021990;28;20652;-66
2023/12/03 00:25:00;;;;;;;23.42;22.02;;;;;;;;;;5021654;28;20080;-74
2023/12/03 00:27:25;;;;;;;24.05;22.63;;;;;;;;;;5024099;28;20064;-74
2023/12/03 00:29:50;;;;;;;22.95;21.55;;;;;;;;;;5022133;28;20060;-66
2023/12/03 00:32:16;;;;;;;21.85;20.63;;;;;;;;;;5024665;28;20079;-66
2023/12/03 00:34:41;;;;;;;23.25;21.85;;;;;;;;;;5023995;28;20036;-73
2023/12/03 00:37:06;;;;;;;22.45;21.10;;;;;;;;;;5024392;28;20131;-66
2023/12/03 00:39:32;;;;;;;22.38;21.08;;;;;;;;;;5020137;28;20029;-73
2023/12/03 00:41:57;;;;;;;23.23;21.38;;;;;;;;;;5020318;28;20034;-66
2023/12/03 00:44:23;;;;;;;22.80;21.40;;;;;;;;;;5021682;28;20494;-66
2023/12/03 00:46:48;;;;;;;21.05;19.85;;;;;;;;;;5020823;28;20462;-73
2023/12/03 00:49:13;;;;;;;21.95;20.65;;;;;;;;;;5024201;28;20931;-66
2023/12/03 00:51:39;;;;;;;22.30;20.90;;;;;;;;;;5024613;28;20055;-72
2023/12/03 00:54:04;;;;;;;21.67;20.38;;;;;;;;;;5023627;28;20068;-65
2023/12/03 00:56:29;;;;;;;22.25;20.95;;;;;;;;;;5021738;28;20636;-72
2023/12/03 00:58:55;;;;;;;23.60;22.20;;;;;;;;;;5022990;28;20186;-72
2023/12/03 01:01:20;;;;;;;24.38;22.60;;;;;;;;;;5026609;28;20120;-71
2023/12/03 01:03:45;;;;;;;20.88;19.67;;;;;;;;;;5022413;28;20637;-73
2023/12/03 01:06:11;;;;;;;21.83;20.48;;;;;;;;;;5021286;28;20045;-66
2023/12/03 01:08:36;;;;;;;22.73;21.10;;;;;;;;;;5024985;28;20060;-66
2023/12/03 01:11:05;;;;;;;22.38;20.98;;;;;;;;;;5021832;28;20601;-66
2023/12/03 01:13:31;;;;;;;23.00;21.52;;;;;;;;;;5025182;28;20036;-73
2023/12/03 01:15:56;;;;;;;21.60;20.40;;;;;;;;;;5019042;28;20367;-66
2023/12/03 01:18:22;;;;;;;22.02;20.73;;;;;;;;;;5028787;28;20037;-66
2023/12/03 01:20:47;;;;;;;22.42;21.13;;;;;;;;;;5030039;28;20038;-66
2023/12/03 01:23:12;;;;;;;21.50;20.27;;;;;;;;;;5025846;28;20029;-65
2023/12/03 01:25:38;;;;;;;23.35;21.95;;;;;;;;;;5023857;28;20471;-65
2023/12/03 01:28:03;;;;;;;21.70;20.30;;;;;;;;;;5023312;28;20033;-73
2023/12/03 01:30:29;;;;;;;22.13;20.83;;;;;;;;;;5025443;28;20040;-65
2023/12/03 01:32:54;;;;;;;23.50;21.67;;;;;;;;;;5025213;28;20120;-72
2023/12/03 01:35:19;;;;;;;23.40;22.08;;;;;;;;;;5025344;28;20061;-65
2023/12/03 01:37:45;;;;;;;21.42;20.05;;;;;;;;;;5023037;28;20103;-65
2023/12/03 01:40:10;;;;;;;22.88;21.48;;;;;;;;;;5025075;28;20112;-65
2023/12/03 01:42:36;;;;;;;21.30;20.10;;;;;;;;;;5021291;28;20467;-71
2023/12/03 01:45:03;;;;;;;22.35;20.60;;;;;;;;;;5024794;28;20049;-71
2023/12/03 01:47:29;;;;;;;22.27;20.75;;;;;;;;;;5024471;28;20119;-73
2023/12/03 01:49:55;;;;;;;21.35;20.08;;;;;;;;;;5024062;28;20770;-73
2023/12/03 01:52:22;;;;;;;21.60;20.20;;;;;;;;;;5026601;28;20349;-72
2023/12/03 01:54:48;;;;;;;22.80;21.40;;;;;;;;;;5026007;28;20037;-66
2023/12/03 01:57:14;;;;;;;23.60;21.92;;;;;;;;;;5023072;28;20056;-66
2023/12/03 01:59:40;;;;;;;21.73;20.52;;;;;;;;;;5023323;28;20046;-72
2023/12/03 02:02:06;;;;;;;23.30;21.90;;;;;;;;;;5021911;28;20034;-72
2023/12/03 02:04:31;;;;;;;22.70;21.33;;;;;;;;;;5026192;28;20419;-66
2023/12/03 02:06:57;;;;;;;22.98;21.60;;;;;;;;;;5020640;28;20033;-72
2023/12/03 02:09:23;;;;;;;21.92;20.63;;;;;;;;;;5023279;28;20537;-66
2023/12/03 02:11:49;;;;;;;21.95;20.65;;;;;;;;;;5025767;28;20097;-73
2023/12/03 02:14:14;;;;;;;22.90;21.50;;;;;;;;;;5022656;28;20120;-72
2023/12/03 02:16:47;;;;;;;21.65;20.35;;;;;;;;;;5025020;28;20060;-72
2023/12/03 02:19:16;;;;;;;23.73;22.08;;;;;;;;;;5024507;28;20092;-72
2023/12/03 02:21:41;;;;;;;22.45;21.13;;;;;;;;;;5023636;28;20646;-72
2023/12/03 02:24:07;;;;;;;23.38;21.67;;;;;;;;;;5021451;28;20604;-65
2023/12/03 02:26:33;;;;;;;22.88;21.30;;;;;;;;;;5022858;28;20119;-65
2023/12/03 02:28:58;;;;;;;23.10;21.70;;;;;;;;;;5023928;28;20048;-72
2023/12/03 02:31:27;;;;;;;24.38;22.67;;;;;;;;;;5024146;28;20542;-72
2023/12/03 02:34:08;;;;;;;22.17;20.88;;;;;;;;;;5020907;28;20026;-66
2023/12/03 02:36:34;;;;;;;23.30;21.98;;;;;;;;;;5029051;28;20076;-66
2023/12/03 02:39:00;;;;;;;23.38;21.88;;;;;;;;;;5022624;28;20048;-65
2023/12/03 02:41:25;;;;;;;23.15;21.77;;;;;;;;;;5022706;28;20033;-66
2023/12/03 02:43:51;;;;;;;23.23;21.92;;;;;;;;;;5020914;28;20044;-66
2023/12/03 02:46:16;;;;;;;23.05;21.55;;;;;;;;;;5028474;28;20088;-65
2023/12/03 02:48:41;;;;;;;24.10;22.67;;;;;;;;;;5025162;28;20040;-63
2023/12/03 02:51:07;;;;;;;23.48;21.85;;;;;;;;;;5023621;28;20064;-71
2023/12/03 02:53:43;;;;;;;22.42;21.02;;;;;;;;;;5024136;28;20040;-71
2023/12/03 02:56:08;;;;;;;22.85;21.40;;;;;;;;;;5024035;28;20048;-70
2023/12/03 02:58:33;;;;;;;24.10;22.45;;;;;;;;;;5022689;28;20045;-70
2023/12/03 03:00:59;;;;;;;22.40;21.10;;;;;;;;;;5020958;28;20038;-70
2023/12/03 03:03:24;;;;;;;24.77;23.27;;;;;;;;;;5021984;28;20038;-70
2023/12/03 03:05:50;;;;;;;25.85;24.10;;;;;;;;;;5023872;28;20045;-64
2023/12/03 03:08:15;;;;;;;25.30;22.73;;;;;;;;;;5020014;28;20037;-70
2023/12/03 03:10:40;;;;;;;22.20;20.88;;;;;;;;;;5020285;28;20407;-64
2023/12/03 03:13:07;;;;;;;23.17;21.83;;;;;;;;;;5024202;28;20365;-70
2023/12/03 03:15:33;;;;;;;22.80;21.30;;;;;;;;;;5023651;28;20558;-65
2023/12/03 03:17:58;;;;;;;24.48;22.95;;;;;;;;;;5019874;28;20041;-65
2023/12/03 03:20:23;;;;;;;23.10;21.70;;;;;;;;;;5023468;28;20473;-69
2023/12/03 03:22:50;;;;;;;21.70;20.42;;;;;;;;;;5023914;28;20025;-65
2023/12/03 03:25:16;;;;;;;25.40;22.38;;;;;;;;;;5019585;28;20111;-71
2023/12/03 03:27:41;;;;;;;23.55;22.15;;;;;;;;;;5023313;28;20056;-70
2023/12/03 03:30:07;;;;;;;24.80;23.05;;;;;;;;;;5028976;28;20065;-70
2023/12/03 03:32:33;;;;;;;24.95;23.40;;;;;;;;;;5026884;28;20041;-70
2023/12/03 03:34:58;;;;;;;24.05;22.70;;;;;;;;;;5021324;28;20035;-71
2023/12/03 03:37:24;;;;;;;24.65;22.90;;;;;;;;;;5025794;28;20084;-71
2023/12/03 03:39:49;;;;;;;24.23;22.83;;;;;;;;;;5022807;28;20037;-71
2023/12/03 03:42:14;;;;;;;24.92;23.45;;;;;;;;;;5024867;28;20033;-70
2023/12/03 03:44:40;;;;;;;23.27;21.83;;;;;;;;;;5022504;28;20037;-65
2023/12/03 03:47:05;;;;;;;23.67;22.27;;;;;;;;;;5018892;28;20026;-65
2023/12/03 03:49:30;;;;;;;23.35;21.88;;;;;;;;;;5020871;28;20367;-65
2023/12/03 03:51:56;;;;;;;25.00;23.50;;;;;;;;;;5020261;28;20030;-65
2023/12/03 03:54:21;;;;;;;23.50;22.08;;;;;;;;;;5018374;28;20137;-70
2023/12/03 03:56:47;;;;;;;23.35;21.95;;;;;;;;;;5022402;28;20076;-71
2023/12/03 03:59:13;;;;;;;24.40;23.00;;;;;;;;;;5021915;28;20067;-70
2023/12/03 04:01:43;;;;;;;24.00;22.60;;;;;;;;;;5021250;28;20041;-65
2023/12/03 04:04:08;;;;;;;23.88;22.30;;;;;;;;;;5019875;28;20042;-65
2023/12/03 04:06:40;;;;;;;26.55;24.65;;;;;;;;;;5019901;28;20037;-65
2023/12/03 04:09:06;;;;;;;21.35;20.15;;;;;;;;;;5019666;28;20060;-65
2023/12/03 04:11:32;;;;;;;25.08;23.25;;;;;;;;;;5022708;28;20029;-65
2023/12/03 04:13:57;;;;;;;24.70;23.30;;;;;;;;;;5024626;28;20111;-65
2023/12/03 04:16:24;;;;;;;24.88;23.38;;;;;;;;;;5025427;28;20430;-65
2023/12/03 04:18:50;;;;;;;24.60;23.10;;;;;;;;;;5024396;28;20033;-65
2023/12/03 04:21:15;;;;;;;25.73;23.80;;;;;;;;;;5019411;28;20110;-66
2023/12/03 04:23:40;;;;;;;25.80;24.15;;;;;;;;;;5004636;28;20026;-65
2023/12/03 04:26:09;;;;;;;24.23;22.67;;;;;;;;;;5021050;28;20033;-65
2023/12/03 04:28:39;;;;;;;24.50;22.92;;;;;;;;;;5022069;28;20033;-65
2023/12/03 04:31:05;;;;;;;25.23;23.45;;;;;;;;;;5020950;28;20137;-64
2023/12/03 04:33:30;;;;;;;26.70;23.98;;;;;;;;;;5021994;28;20109;-65
2023/12/03 04:35:56;;;;;;;23.77;22.38;;;;;;;;;;5025763;28;20049;-64
2023/12/03 04:38:21;;;;;;;26.38;24.77;;;;;;;;;;5023378;28;20033;-69
2023/12/03 04:40:46;;;;;;;26.15;24.48;;;;;;;;;;5020472;28;20056;-71
2023/12/03 04:43:11;;;;;;;24.13;22.80;;;;;;;;;;5017442;28;20040;-70
2023/12/03 04:45:37;;;;;;;25.02;23.52;;;;;;;;;;5020471;28;20575;-70
2023/12/03 04:48:03;;;;;;;24.35;22.88;;;;;;;;;;5021327;28;20037;-65
2023/12/03 04:50:28;;;;;;;27.58;25.60;;;;;;;;;;5019057;28;20482;-66
2023/12/03 04:52:58;;;;;;;27.15;25.60;;;;;;;;;;5021483;28;20021;-65
2023/12/03 04:55:23;;;;;;;26.42;24.83;;;;;;;;;;5022674;28;20042;-65
2023/12/03 04:57:48;;;;;;;26.10;24.52;;;;;;;;;;5025771;28;20051;-64
2023/12/03 05:00:14;;;;;;;25.98;24.42;;;;;;;;;;5024349;28;20525;-65
2023/12/03 05:02:39;;;;;;;28.33;26.55;;;;;;;;;;5026054;28;20123;-66
2023/12/03 05:05:05;;;;;;;24.60;23.02;;;;;;;;;;5024907;28;20041;-66
2023/12/03 05:07:30;;;;;;;28.02;26.15;;;;;;;;;;5025773;28;20100;-66
2023/12/03 05:09:56;;;;;;;27.65;26.05;;;;;;;;;;5026412;28;20037;-71
2023/12/03 05:12:21;;;;;;;26.85;25.35;;;;;;;;;;5028335;28;20033;-70
2023/12/03 05:14:46;;;;;;;28.20;26.40;;;;;;;;;;5026893;28;20041;-65
2023/12/03 05:17:12;;;;;;;27.40;25.90;;;;;;;;;;5023176;28;20036;-65
2023/12/03 05:19:37;;;;;;;30.40;28.73;;;;;;;;;;5023909;28;20030;-65
2023/12/03 05:22:03;;;;;;;31.45;29.35;;;;;;;;;;5024617;28;20041;-65
2023/12/03 05:24:28;;;;;;;31.10;29.25;;;;;;;;;;5024893;28;20493;-65
2023/12/03 05:26:53;;;;;;;30.73;28.83;;;;;;;;;;5024520;28;20726;-65
2023/12/03 05:29:21;;;;;;;31.13;29.15;;;;;;;;;;5027150;28;20231;-70
2023/12/03 05:31:47;;;;;;;31.20;29.27;;;;;;;;;;5022441;28;20363;-65
2023/12/03 05:34:12;;;;;;;30.80;29.00;;;;;;;;;;5027442;28;20025;-65
2023/12/03 05:36:37;;;;;;;31.15;29.25;;;;;;;;;;5026591;28;20033;-65
2023/12/03 05:39:04;;;;;;;30.13;28.27;;;;;;;;;;5029202;28;20111;-65
2023/12/03 05:41:29;;;;;;;31.80;29.95;;;;;;;;;;5026660;28;20047;-64
2023/12/03 05:43:54;;;;;;;33.10;31.00;;;;;;;;;;5028873;28;20032;-66
2023/12/03 05:46:20;;;;;;;32.67;30.85;;;;;;;;;;5027627;28;20051;-65
2023/12/03 05:48:45;;;;;;;32.55;30.27;;;;;;;;;;5023416;28;20065;-64
2023/12/03 05:51:10;;;;;;;31.05;29.30;;;;;;;;;;5025443;28;20065;-65
2023/12/03 05:53:36;;;;;;;31.65;29.85;;;;;;;;;;5022309;28;20044;-66
2023/12/03 05:56:01;;;;;;;33.95;31.48;;;;;;;;;;5026171;28;20148;-66
2023/12/03 05:58:26;;;;;;;31.08;29.20;;;;;;;;;;5023201;28;20859;-66
2023/12/03 06:00:52;;;;;;;30.88;29.08;;;;;;;;;;5024899;28;20034;-66
2023/12/03 06:03:17;;;;;;;29.95;28.15;;;;;;;;;;5021916;28;20037;-66
2023/12/03 06:05:42;;;;;;;32.72;30.65;;;;;;;;;;5026851;28;20029;-70
2023/12/03 06:08:08;;;;;;;33.20;31.05;;;;;;;;;;5023980;28;20025;-70
2023/12/03 06:10:33;;;;;;;32.53;30.38;;;;;;;;;;5011692;28;20068;-66
2023/12/03 06:12:58;;;;;;;30.35;28.35;;;;;;;;;;5025574;28;20382;-66
2023/12/03 06:15:24;;;;;;;32.22;30.35;;;;;;;;;;5023498;28;20371;-66
2023/12/03 06:17:49;;;;;;;29.85;27.85;;;;;;;;;;5020998;28;20034;-66
2023/12/03 06:20:14;;;;;;;30.38;28.63;;;;;;;;;;5023580;28;20034;-69
2023/12/03 06:22:40;;;;;;;32.83;30.50;;;;;;;;;;5024021;28;20087;-70
2023/12/03 06:25:06;;;;;;;30.77;28.77;;;;;;;;;;5023774;28;20040;-70
2023/12/03 06:27:31;;;;;;;32.78;30.52;;;;;;;;;;5023049;28;20107;-66
2023/12/03 06:29:57;;;;;;;28.50;26.90;;;;;;;;;;5023273;28;20041;-66
2023/12/03 06:32:22;;;;;;;32.22;30.38;;;;;;;;;;5024786;28;20025;-70
2023/12/03 06:34:48;;;;;;;30.08;28.25;;;;;;;;;;5023478;28;20494;-70
2023/12/03 06:37:13;;;;;;;31.00;29.13;;;;;;;;;;5024859;28;20821;-67
2023/12/03 06:39:38;;;;;;;31.92;30.05;;;;;;;;;;5010943;28;20032;-66
2023/12/03 06:42:04;;;;;;;29.50;27.80;;;;;;;;;;5023372;28;20037;-67
2023/12/03 06:44:29;;;;;;;30.55;28.55;;;;;;;;;;5022130;28;20036;-66
2023/12/03 06:46:55;;;;;;;31.83;29.85;;;;;;;;;;5025968;28;20041;-68
2023/12/03 06:49:20;;;;;;;32.33;30.23;;;;;;;;;;5023031;28;20030;-66
2023/12/03 06:51:45;;;;;;;31.50;29.60;;;;;;;;;;5025798;28;20086;-66
2023/12/03 06:54:11;;;;;;;32.63;30.60;;;;;;;;;;5021464;28;20032;-67
2023/12/03 06:56:37;;;;;;;29.80;28.08;;;;;;;;;;5024405;28;20049;-67
2023/12/03 06:59:02;;;;;;;30.80;28.98;;;;;;;;;;5024060;28;20414;-68
2023/12/03 07:01:28;;;;;;;29.73;27.75;;;;;;;;;;5025484;28;20048;-67
2023/12/03 07:03:53;;;;;;;31.23;29.40;;;;;;;;;;5021015;28;20026;-69
2023/12/03 07:06:18;;;;;;;31.85;29.98;;;;;;;;;;5019440;28;20088;-67
2023/12/03 07:08:44;;;;;;;30.80;29.10;;;;;;;;;;5024379;28;20048;-67
2023/12/03 07:11:12;;;;;;;30.90;29.10;;;;;;;;;;5022556;28;20041;-67
2023/12/03 07:13:38;;;;;;;33.85;31.65;;;;;;;;;;5020964;28;20036;-69
2023/12/03 07:16:03;;;;;;;31.70;29.85;;;;;;;;;;5022539;28;20041;-70
2023/12/03 07:18:29;;;;;;;32.30;30.02;;;;;;;;;;5020874;28;20493;-69
2023/12/03 07:20:54;;;;;;;33.55;31.60;;;;;;;;;;5023080;28;20495;-67
2023/12/03 07:23:20;;;;;;;33.88;31.83;;;;;;;;;;5019987;28;20044;-67
2023/12/03 07:25:46;;;;;;;32.22;30.42;;;;;;;;;;5019633;28;20033;-68
2023/12/03 07:28:11;;;;;;;32.88;30.67;;;;;;;;;;5023690;28;20421;-70
2023/12/03 07:30:37;;;;;;;31.60;29.80;;;;;;;;;;5022767;28;20466;-67
2023/12/03 07:33:03;;;;;;;31.80;30.02;;;;;;;;;;5008755;28;20045;-66
2023/12/03 07:35:28;;;;;;;31.80;29.77;;;;;;;;;;5021712;28;20045;-74
2023/12/03 07:37:55;;;;;;;31.98;30.02;;;;;;;;;;5020384;28;20103;-73
2023/12/03 07:40:20;;;;;;;30.73;28.95;;;;;;;;;;5024544;28;20068;-65
2023/12/03 07:42:46;;;;;;;29.65;27.95;;;;;;;;;;5023368;28;20419;-73
2023/12/03 07:45:11;;;;;;;29.65;28.00;;;;;;;;;;5023641;28;20156;-74
2023/12/03 07:47:36;;;;;;;28.05;26.45;;;;;;;;;;5023408;28;20379;-65
2023/12/03 07:50:02;;;;;;;29.63;27.80;;;;;;;;;;5021377;28;20075;-65
2023/12/03 07:52:27;;;;;;;29.83;28.00;;;;;;;;;;5021464;28;20030;-65
2023/12/03 07:54:53;;;;;;;29.00;27.23;;;;;;;;;;5023951;28;20557;-66
2023/12/03 07:57:18;;;;;;;27.25;25.67;;;;;;;;;;5023970;28;20037;-74
2023/12/03 07:59:44;;;;;;;29.48;27.67;;;;;;;;;;5025854;28;20032;-73
2023/12/03 08:02:09;;;;;;;28.88;27.00;;;;;;;;;;5022899;28;20521;-73
2023/12/03 08:04:35;;;;;;;28.48;26.58;;;;;;;;;;5018931;28;20030;-66
2023/12/03 08:07:00;;;;;;;27.45;25.67;;;;;;;;;;5021566;28;20040;-66
2023/12/03 08:09:26;;;;;;;27.23;25.52;;;;;;;;;;5019563;28;20160;-74
2023/12/03 08:11:53;;;;;;;27.25;25.38;;;;;;;;;;5026072;28;20038;-66
2023/12/03 08:14:18;;;;;;;28.75;26.60;;;;;;;;;;5021035;28;20090;-73
2023/12/03 08:16:43;;;;;;;24.73;23.20;;;;;;;;;;5009231;28;20041;-73
2023/12/03 08:19:09;;;;;;;26.42;24.75;;;;;;;;;;5010656;28;20387;-72
2023/12/03 08:21:36;;;;;;;27.45;25.65;;;;;;;;;;5021494;28;20467;-73
2023/12/03 08:24:02;;;;;;;26.50;24.90;;;;;;;;;;5019951;28;20037;-74
2023/12/03 08:26:28;;;;;;;24.67;23.08;;;;;;;;;;5019185;28;20033;-65
2023/12/03 08:28:53;;;;;;;27.50;25.83;;;;;;;;;;5023496;28;20064;-65
2023/12/03 08:31:21;;;;;;;24.70;23.20;;;;;;;;;;5021669;28;21268;-65
2023/12/03 08:33:46;;;;;;;24.70;23.20;;;;;;;;;;5021368;28;20029;-65
2023/12/03 08:36:18;;;;;;;24.75;23.25;;;;;;;;;;5020450;28;20034;-65
2023/12/03 08:38:44;;;;;;;26.05;24.38;;;;;;;;;;5021688;28;20116;-65
2023/12/03 08:41:09;;;;;;;25.50;24.05;;;;;;;;;;5025150;28;20475;-73
2023/12/03 08:43:35;;;;;;;26.50;24.55;;;;;;;;;;5018285;28;20113;-73
2023/12/03 08:46:00;;;;;;;24.52;23.10;;;;;;;;;;5019979;28;20026;-64
2023/12/03 08:48:25;;;;;;;25.80;23.63;;;;;;;;;;5015444;28;20514;-72
2023/12/03 08:50:51;;;;;;;23.85;22.45;;;;;;;;;;5020413;28;20117;-73
2023/12/03 08:53:17;;;;;;;23.80;22.35;;;;;;;;;;5017940;28;20462;-72
2023/12/03 08:55:42;;;;;;;26.67;24.98;;;;;;;;;;5022741;28;20080;-72
2023/12/03 08:58:08;;;;;;;25.48;23.67;;;;;;;;;;5025816;28;20061;-73
2023/12/03 09:00:33;;;;;;;28.33;25.85;;;;;;;;;;5025222;28;20040;-72
2023/12/03 09:02:59;;;;;;;25.10;23.50;;;;;;;;;;5022943;28;20080;-65
2023/12/03 09:05:24;;;;;;;23.45;22.10;;;;;;;;;;5022681;28;20489;-64
2023/12/03 09:07:49;;;;;;;24.42;23.00;;;;;;;;;;5023013;28;20419;-72
2023/12/03 09:10:15;;;;;;;26.73;24.70;;;;;;;;;;5021503;28;20033;-71
2023/12/03 09:12:42;;;;;;;25.45;23.85;;;;;;;;;;5025610;28;20116;-72
2023/12/03 09:15:08;;;;;;;27.70;26.02;;;;;;;;;;5018286;28;20035;-61
2023/12/03 09:17:33;;;;;;;27.15;25.48;;;;;;;;;;5021363;28;20026;-74
2023/12/03 09:19:59;;;;;;;26.77;25.17;;;;;;;;;;5023405;28;20053;-75
2023/12/03 09:22:24;;;;;;;28.05;26.45;;;;;;;;;;5021252;28;20052;-64
2023/12/03 09:24:50;;;;;;;25.13;23.52;;;;;;;;;;5020677;28;20042;-63
2023/12/03 09:27:16;;;;;;;27.63;25.98;;;;;;;;;;5021454;28;20093;-63
2023/12/03 09:29:41;;;;;;;28.38;26.58;;;;;;;;;;5021455;28;20041;-63
2023/12/03 09:32:07;;;;;;;25.30;23.88;;;;;;;;;;5019404;28;20426;-65
2023/12/03 09:34:33;;;;;;;25.15;23.75;;;;;;;;;;5025066;28;20032;-63
2023/12/03 09:36:58;;;;;;;25.60;23.88;;;;;;;;;;5023436;28;20123;-63
2023/12/03 09:39:23;;;;;;;25.42;23.70;;;;;;;;;;5023142;28;20030;-63
2023/12/03 09:41:51;;;;;;;27.10;25.15;;;;;;;;;;5024603;28;20098;-63
2023/12/03 09:44:26;;;;;;;26.77;25.00;;;;;;;;;;5022178;28;20422;-60
2023/12/03 09:46:54;;;;;;;24.42;22.92;;;;;;;;;;5026686;28;20746;-63
2023/12/03 09:49:25;;;;;;;25.73;24.08;;;;;;;;;;5025162;28;20069;-65
2023/12/03 09:51:51;;;;;;;25.77;23.92;;;;;;;;;;5024247;28;20468;-64
2023/12/03 09:54:19;;;;;;;24.20;22.45;;;;;;;;;;5022643;28;20033;-64
2023/12/03 09:56:46;;;;;;;25.80;24.30;;;;;;;;;;5022337;28;20029;-68
2023/12/03 09:59:14;;;;;;;25.85;24.35;;;;;;;;;;5023066;28;20575;-64
2023/12/03 10:01:41;;;;;;;25.15;23.63;;;;;;;;;;5024199;28;20080;-65
2023/12/03 10:04:07;;;;;;;24.30;22.83;;;;;;;;;;5026090;28;20103;-65
2023/12/03 10:06:41;;;;;;;28.92;27.13;;;;;;;;;;5028024;28;20115;-69
2023/12/03 10:09:07;;;;;;;26.00;24.05;;;;;;;;;;5024257;28;20059;-69
2023/12/03 10:11:42;;;;;;;26.20;24.55;;;;;;;;;;5025547;28;20468;-69
2023/12/03 10:14:15;;;;;;;27.58;25.70;;;;;;;;;;5021884;28;20461;-69
2023/12/03 10:16:47;;;;;;;28.80;27.02;;;;;;;;;;5022620;28;20030;-69
2023/12/03 10:19:23;;;;;;;27.85;26.25;;;;;;;;;;5025931;28;20048;-68
2023/12/03 10:21:49;;;;;;;28.50;26.63;;;;;;;;;;5026173;28;20529;-68
2023/12/03 10:24:15;;;;;;;28.77;27.00;;;;;;;;;;5022911;28;20037;-68
2023/12/03 10:26:50;;;;;;;29.27;27.27;;;;;;;;;;5024636;28;20362;-68
2023/12/03 10:29:19;;;;;;;27.50;25.80;;;;;;;;;;5017395;28;20222;-67
2023/12/03 10:31:46;;;;;;;28.13;26.27;;;;;;;;;;5024504;28;20034;-66
2023/12/03 10:34:12;;;;;;;27.65;25.98;;;;;;;;;;5029323;28;20025;-67
2023/12/03 10:36:37;;;;;;;29.42;27.10;;;;;;;;;;5030619;28;20095;-67
2023/12/03 10:39:07;;;;;;;29.00;27.38;;;;;;;;;;5025485;28;20533;-66
2023/12/03 10:41:33;;;;;;;28.67;26.30;;;;;;;;;;5023212;28;20098;-66
2023/12/03 10:43:58;;;;;;;26.90;25.27;;;;;;;;;;5023509;28;20383;-65
2023/12/03 10:46:24;;;;;;;26.50;24.88;;;;;;;;;;5023398;28;20036;-66
2023/12/03 10:48:51;;;;;;;26.95;25.33;;;;;;;;;;5021398;28;20491;-63
2023/12/03 10:51:18;;;;;;;25.77;24.27;;;;;;;;;;5022206;28;20029;-62
2023/12/03 10:53:45;;;;;;;26.02;24.02;;;;;;;;;;5026895;28;20029;-62
2023/12/03 10:56:10;;;;;;;25.67;23.98;;;;;;;;;;5025249;28;20042;-65
2023/12/03 10:58:37;;;;;;;25.85;24.15;;;;;;;;;;5023575;28;20040;-62
2023/12/03 11:01:15;;;;;;;25.67;23.90;;;;;;;;;;5025890;28;20042;-62
2023/12/03 11:03:59;;;;;;;24.67;23.15;;;;;;;;;;5021234;28;20045;-61
2023/12/03 11:06:25;;;;;;;27.00;25.33;;;;;;;;;;5016291;28;20455;-61
2023/12/03 11:08:55;;;;;;;24.60;23.20;;;;;;;;;;5021460;28;20034;-61
2023/12/03 11:11:21;;;;;;;24.77;23.38;;;;;;;;;;5023720;28;20363;-61
2023/12/03 11:13:50;;;;;;;27.25;25.45;;;;;;;;;;5026389;28;20044;-63
2023/12/03 11:16:16;;;;;;;24.63;23.20;;;;;;;;;;5023714;28;20040;-62
2023/12/03 11:18:56;;;;;;;25.67;23.98;;;;;;;;;;5026999;28;20052;-60
2023/12/03 11:21:34;;;;;;;26.08;24.58;;;;;;;;;;5020931;28;20115;-62
2023/12/03 11:24:11;;;;;;;26.70;24.90;;;;;;;;;;5023058;28;20064;-62
2023/12/03 11:26:36;;;;;;;25.58;23.98;;;;;;;;;;5025209;28;20030;-62
2023/12/03 11:29:02;;;;;;;26.70;25.00;;;;;;;;;;5024681;28;20098;-62
2023/12/03 11:31:27;;;;;;;27.45;25.48;;;;;;;;;;5021843;28;20539;-62
2023/12/03 11:33:58;;;;;;;24.63;23.23;;;;;;;;;;5020198;28;20029;-59
2023/12/03 11:36:47;;;;;;;25.52;23.83;;;;;;;;;;5029183;28;20506;-59
2023/12/03 11:39:13;;;;;;;25.30;23.70;;;;;;;;;;5019914;28;20045;-59
2023/12/03 11:41:39;;;;;;;27.02;25.25;;;;;;;;;;5024356;28;20030;-61
2023/12/03 11:44:21;;;;;;;26.23;24.13;;;;;;;;;;5024602;28;20026;-61
2023/12/03 11:46:50;;;;;;;26.60;24.67;;;;;;;;;;5025219;28;20108;-59
2023/12/03 11:49:17;;;;;;;25.00;23.50;;;;;;;;;;5022225;28;20383;-60
2023/12/03 11:51:47;;;;;;;28.48;26.42;;;;;;;;;;5023831;28;20685;-59
2023/12/03 11:54:20;;;;;;;24.52;23.05;;;;;;;;;;5022644;28;20102;-59
2023/12/03 11:56:46;;;;;;;27.52;25.65;;;;;;;;;;5021409;28;20574;-59
2023/12/03 11:59:14;;;;;;;25.45;23.80;;;;;;;;;;5022015;28;20116;-61
2023/12/03 12:01:39;;;;;;;26.08;24.48;;;;;;;;;;5023759;28;20037;-61
2023/12/03 12:04:04;;;;;;;26.67;25.05;;;;;;;;;;5024601;28;20053;-60
2023/12/03 12:06:31;;;;;;;25.60;23.88;;;;;;;;;;5020991;28;20447;-60
2023/12/03 12:08:58;;;;;;;26.17;24.42;;;;;;;;;;5021802;28;20467;-59
2023/12/03 12:11:24;;;;;;;25.52;24.02;;;;;;;;;;5022429;28;20087;-59
2023/12/03 12:13:49;;;;;;;25.08;23.58;;;;;;;;;;5023997;28;20028;-60
2023/12/03 12:16:15;;;;;;;25.58;24.08;;;;;;;;;;5025938;28;20390;-60
2023/12/03 12:18:40;;;;;;;27.15;25.25;;;;;;;;;;5021601;28;20032;-60
2023/12/03 12:21:10;;;;;;;25.55;23.90;;;;;;;;;;5024307;28;20653;-59
2023/12/03 12:23:35;;;;;;;26.23;24.58;;;;;;;;;;5022413;28;20029;-57
2023/12/03 12:26:01;;;;;;;27.42;25.70;;;;;;;;;;5020643;28;20407;-58
2023/12/03 12:28:26;;;;;;;25.60;24.10;;;;;;;;;;5016965;28;20037;-58
2023/12/03 12:30:54;;;;;;;24.92;23.42;;;;;;;;;;5021775;28;20040;-59
2023/12/03 12:33:20;;;;;;;28.50;26.58;;;;;;;;;;5023368;28;20196;-58
2023/12/03 12:35:49;;;;;;;25.60;24.00;;;;;;;;;;5021422;28;20029;-57
2023/12/03 12:38:15;;;;;;;25.67;23.98;;;;;;;;;;5021191;28;20061;-58
2023/12/03 12:40:52;;;;;;;26.00;24.42;;;;;;;;;;5022610;28;20397;-58
2023/12/03 12:43:17;;;;;;;23.95;22.55;;;;;;;;;;5020716;28;20034;-58
2023/12/03 12:45:43;;;;;;;24.25;22.85;;;;;;;;;;5019090;28;20034;-58
2023/12/03 12:48:34;;;;;;;25.05;23.55;;;;;;;;;;5021659;28;20092;-61
2023/12/03 12:51:00;;;;;;;27.70;25.90;;;;;;;;;;5020948;28;20079;-61
2023/12/03 12:53:26;;;;;;;26.23;24.52;;;;;;;;;;5017234;28;20589;-60
2023/12/03 12:55:51;;;;;;;24.77;23.13;;;;;;;;;;5019940;28;20099;-60
2023/12/03 12:58:17;;;;;;;27.50;25.80;;;;;;;;;;5008645;28;20026;-61
2023/12/03 13:00:42;;;;;;;25.90;24.33;;;;;;;;;;5024411;28;20597;-60
2023/12/03 13:03:08;;;;;;;26.08;24.52;;;;;;;;;;5019487;28;20104;-57
2023/12/03 13:05:34;;;;;;;27.20;25.60;;;;;;;;;;5021152;28;20033;-58
2023/12/03 13:07:59;;;;;;;26.08;24.48;;;;;;;;;;5018939;28;20144;-57
2023/12/03 13:10:25;;;;;;;25.17;23.65;;;;;;;;;;5023077;28;20037;-58
2023/12/03 13:12:51;;;;;;;26.48;24.48;;;;;;;;;;5022686;28;20506;-59
2023/12/03 13:15:17;;;;;;;24.20;22.70;;;;;;;;;;5024117;28;20037;-59
2023/12/03 13:17:54;;;;;;;25.52;23.95;;;;;;;;;;5025307;28;20037;-58
2023/12/03 13:20:21;;;;;;;25.52;24.02;;;;;;;;;;5026183;28;20038;-58
2023/12/03 13:22:49;;;;;;;24.92;23.20;;;;;;;;;;5023461;28;20022;-59
2023/12/03 13:25:15;;;;;;;28.25;26.45;;;;;;;;;;5022165;28;20647;-58
2023/12/03 13:27:41;;;;;;;25.65;24.05;;;;;;;;;;5024513;28;20662;-60
2023/12/03 13:30:07;;;;;;;25.73;24.20;;;;;;;;;;5023720;28;20117;-58
2023/12/03 13:32:34;;;;;;;28.60;26.83;;;;;;;;;;5025086;28;20065;-59
2023/12/03 13:35:00;;;;;;;26.98;25.38;;;;;;;;;;5024339;28;20036;-59
2023/12/03 13:37:25;;;;;;;26.73;25.13;;;;;;;;;;5025134;28;20098;-59
2023/12/03 13:39:51;;;;;;;27.08;25.40;;;;;;;;;;5025707;28;20041;-61
2023/12/03 13:42:16;;;;;;;25.38;23.63;;;;;;;;;;5025097;28;20079;-61
2023/12/03 13:44:42;;;;;;;27.70;25.75;;;;;;;;;;5025737;28;20472;-61
2023/12/03 13:47:07;;;;;;;26.83;25.05;;;;;;;;;;5027690;28;20344;-59
2023/12/03 13:49:33;;;;;;;26.48;24.85;;;;;;;;;;5026881;28;20110;-61
2023/12/03 13:51:58;;;;;;;24.80;23.30;;;;;;;;;;5024656;28;20087;-60
2023/12/03 13:54:23;;;;;;;26.08;24.05;;;;;;;;;;5026437;28;20527;-61
2023/12/03 13:56:49;;;;;;;25.08;23.58;;;;;;;;;;5022971;28;20858;-61
2023/12/03 13:59:14;;;;;;;26.90;25.27;;;;;;;;;;5025057;28;20036;-59
2023/12/03 14:01:40;;;;;;;25.45;23.85;;;;;;;;;;5023873;28;20060;-59
2023/12/03 14:04:05;;;;;;;24.02;22.65;;;;;;;;;;5025698;28;20121;-58
2023/12/03 14:06:30;;;;;;;26.83;25.13;;;;;;;;;;5026117;28;20037;-59
2023/12/03 14:08:56;;;;;;;25.77;24.17;;;;;;;;;;5024761;28;20045;-60
2023/12/03 14:11:21;;;;;;;24.92;23.52;;;;;;;;;;5025847;28;20092;-60